createdAt,value
2022-11-10T00:00:36.174Z,2.38
2022-11-10T00:02:07.616Z,2.78
2022-11-10T00:03:38.959Z,2.81
2022-11-10T00:05:10.284Z,2.24
2022-11-10T00:06:41.618Z,2.29
2022-11-10T00:08:13.014Z,2.44
2022-11-10T00:09:44.660Z,2.11
2022-11-10T00:11:16.292Z,2.35
2022-11-10T00:12:47.697Z,2.51
2022-11-10T00:14:19.299Z,2.45
2022-11-10T00:15:50.840Z,2.59
2022-11-10T00:17:22.385Z,2.29
2022-11-10T00:18:53.769Z,2.82
2022-11-10T00:20:25.304Z,2.51
2022-11-10T00:21:56.724Z,2.19
2022-11-10T00:23:28.849Z,2.47
2022-11-10T00:25:00.281Z,2.43
2022-11-10T00:26:31.841Z,2.25
2022-11-10T00:28:03.164Z,2.69
2022-11-10T00:29:34.767Z,2.35
2022-11-10T00:31:06.005Z,2.48
2022-11-10T00:32:37.353Z,2.55
2022-11-10T00:34:08.819Z,2.71
2022-11-10T00:35:40.103Z,2.37
2022-11-10T00:37:11.696Z,2.66
2022-11-10T00:38:43.046Z,2.54
2022-11-10T00:40:14.359Z,2.46
2022-11-10T00:41:45.594Z,2.31
2022-11-10T00:43:17.011Z,2.28
2022-11-10T00:44:48.250Z,2.59
2022-11-10T00:46:19.767Z,2.48
2022-11-10T00:47:51.197Z,2.45
2022-11-10T00:49:22.615Z,2.11
2022-11-10T00:50:53.931Z,2.65
2022-11-10T00:52:25.285Z,2.69
2022-11-10T00:53:56.983Z,2.59
2022-11-10T00:55:28.288Z,2.39
2022-11-10T00:56:59.962Z,2.47
2022-11-10T00:58:31.521Z,2.48
2022-11-10T01:00:02.894Z,2.53
2022-11-10T01:01:34.300Z,3.02
2022-11-10T01:03:05.887Z,3.13
2022-11-10T01:04:37.413Z,2.83
2022-11-10T01:06:09.027Z,3.00
2022-11-10T01:07:40.563Z,2.86
2022-11-10T01:09:12.018Z,2.65
2022-11-10T01:10:43.587Z,2.57
2022-11-10T01:12:14.871Z,3.12
2022-11-10T01:13:46.291Z,3.00
2022-11-10T01:15:17.523Z,3.13
2022-11-10T01:16:48.738Z,2.79
2022-11-10T01:18:20.137Z,2.91
2022-11-10T01:19:52.777Z,3.02
2022-11-10T01:21:24.049Z,2.60
2022-11-10T01:22:55.331Z,2.59
2022-11-10T01:24:26.763Z,2.65
2022-11-10T01:25:58.229Z,2.62
2022-11-10T01:27:29.645Z,2.64
2022-11-10T01:29:01.155Z,2.82
2022-11-10T01:30:32.434Z,2.91
2022-11-10T01:32:03.733Z,2.65
2022-11-10T01:33:36.303Z,2.68
2022-11-10T01:35:07.782Z,2.93
2022-11-10T01:36:39.094Z,2.55
2022-11-10T01:38:10.309Z,2.73
2022-11-10T01:39:41.941Z,2.94
2022-11-10T01:41:13.294Z,2.57
2022-11-10T01:42:44.571Z,2.28
2022-11-10T01:44:15.956Z,2.76
2022-11-10T01:45:47.293Z,3.06
2022-11-10T01:47:18.604Z,2.82
2022-11-10T01:48:49.927Z,2.77
2022-11-10T01:50:21.451Z,2.57
2022-11-10T01:51:52.947Z,2.65
2022-11-10T01:53:24.580Z,2.72
2022-11-10T01:54:56.206Z,3.02
2022-11-10T01:56:27.654Z,2.77
2022-11-10T01:57:59.083Z,2.46
2022-11-10T01:59:30.604Z,2.27
2022-11-10T02:01:02.409Z,2.46
2022-11-10T02:02:34.011Z,3.01
2022-11-10T02:04:05.252Z,3.10
2022-11-10T02:05:36.517Z,2.65
2022-11-10T02:07:07.862Z,2.80
2022-11-10T02:08:39.223Z,2.88
2022-11-10T02:10:10.872Z,2.63
2022-11-10T02:11:42.311Z,2.91
2022-11-10T02:13:13.653Z,3.07
2022-11-10T02:14:45.096Z,2.95
2022-11-10T02:16:16.544Z,2.44
2022-11-10T02:17:47.969Z,3.17
2022-11-10T02:19:19.384Z,3.06
2022-11-10T02:20:50.804Z,2.79
2022-11-10T02:22:22.113Z,3.17
2022-11-10T02:23:53.632Z,2.63
2022-11-10T02:25:25.148Z,2.94
2022-11-10T02:26:56.481Z,2.90
2022-11-10T02:28:28.001Z,2.94
2022-11-10T02:29:59.424Z,3.17
2022-11-10T02:31:30.902Z,2.77
2022-11-10T02:33:02.450Z,2.84
2022-11-10T02:34:33.771Z,2.89
2022-11-10T02:36:05.118Z,3.18
2022-11-10T02:37:36.654Z,2.69
2022-11-10T02:39:08.055Z,2.69
2022-11-10T02:40:39.310Z,2.76
2022-11-10T02:42:10.711Z,3.09
2022-11-10T02:43:42.055Z,2.94
2022-11-10T02:45:13.534Z,2.89
2022-11-10T02:46:45.065Z,3.25
2022-11-10T02:48:16.624Z,3.45
2022-11-10T02:49:48.331Z,2.71
2022-11-10T02:51:20.061Z,2.94
2022-11-10T02:52:51.733Z,2.85
2022-11-10T02:54:23.337Z,3.17
2022-11-10T02:55:54.942Z,3.08
2022-11-10T02:57:26.251Z,2.83
2022-11-10T02:58:57.541Z,2.97
2022-11-10T03:00:29.300Z,3.28
2022-11-10T03:02:00.803Z,3.09
2022-11-10T03:03:32.533Z,3.14
2022-11-10T03:05:03.913Z,3.20
2022-11-10T03:06:35.215Z,2.77
2022-11-10T03:08:06.465Z,2.81
2022-11-10T03:09:37.859Z,2.85
2022-11-10T03:11:09.404Z,2.93
2022-11-10T03:12:41.960Z,2.82
2022-11-10T03:14:13.229Z,2.73
2022-11-10T03:15:44.517Z,2.96
2022-11-10T03:17:15.978Z,2.87
2022-11-10T03:18:47.294Z,2.86
2022-11-10T03:20:18.706Z,3.13
2022-11-10T03:21:50.412Z,3.47
2022-11-10T03:23:22.064Z,2.87
2022-11-10T03:24:53.696Z,2.94
2022-11-10T03:26:25.107Z,3.07
2022-11-10T03:27:56.432Z,2.95
2022-11-10T03:29:27.864Z,3.05
2022-11-10T03:30:59.291Z,2.88
2022-11-10T03:32:30.684Z,2.87
2022-11-10T03:34:01.947Z,3.56
2022-11-10T03:35:33.451Z,3.12
2022-11-10T03:37:04.763Z,3.10
2022-11-10T03:38:36.082Z,2.91
2022-11-10T03:40:07.479Z,3.17
2022-11-10T03:41:38.824Z,3.05
2022-11-10T03:43:10.025Z,2.79
2022-11-10T03:44:41.312Z,3.17
2022-11-10T03:46:12.609Z,3.15
2022-11-10T03:47:44.049Z,3.45
2022-11-10T03:49:15.559Z,2.95
2022-11-10T03:50:47.015Z,2.84
2022-11-10T03:52:18.412Z,3.19
2022-11-10T03:53:49.979Z,3.38
2022-11-10T03:55:21.245Z,2.92
2022-11-10T03:56:52.794Z,3.09
2022-11-10T03:58:24.099Z,3.10
2022-11-10T03:59:55.602Z,2.98
2022-11-10T04:01:26.910Z,2.79
2022-11-10T04:02:58.253Z,3.08
2022-11-10T04:04:29.700Z,3.10
2022-11-10T04:06:01.216Z,3.02
2022-11-10T04:07:32.620Z,2.54
2022-11-10T04:09:03.905Z,2.80
2022-11-10T04:10:35.421Z,3.15
2022-11-10T04:12:06.665Z,3.56
2022-11-10T04:13:38.031Z,2.60
2022-11-10T04:15:09.420Z,3.10
2022-11-10T04:16:40.756Z,3.34
2022-11-10T04:18:12.033Z,3.27
2022-11-10T04:19:43.380Z,3.00
2022-11-10T04:21:14.921Z,3.49
2022-11-10T04:22:46.716Z,3.06
2022-11-10T04:24:18.009Z,2.90
2022-11-10T04:25:49.420Z,3.51
2022-11-10T04:27:20.723Z,2.95
2022-11-10T04:28:52.036Z,2.96
2022-11-10T04:30:23.455Z,3.06
2022-11-10T04:31:54.765Z,2.88
2022-11-10T04:33:26.183Z,2.92
2022-11-10T04:34:57.489Z,3.04
2022-11-10T04:36:28.930Z,3.14
2022-11-10T04:38:00.298Z,3.52
2022-11-10T04:39:31.617Z,3.31
2022-11-10T04:41:02.868Z,2.86
2022-11-10T04:42:34.158Z,3.32
2022-11-10T04:44:05.457Z,3.66
2022-11-10T04:45:37.022Z,2.80
2022-11-10T04:47:11.829Z,3.26
2022-11-10T04:48:43.532Z,3.14
2022-11-10T04:50:15.140Z,3.41
2022-11-10T04:51:46.755Z,3.56
2022-11-10T04:53:18.427Z,2.86
2022-11-10T04:54:49.890Z,3.36
2022-11-10T04:56:21.365Z,3.03
2022-11-10T04:57:52.972Z,3.35
2022-11-10T04:59:24.283Z,3.02
2022-11-10T05:00:55.838Z,3.08
2022-11-10T05:02:27.516Z,3.28
2022-11-10T05:03:59.010Z,3.12
2022-11-10T05:05:30.655Z,3.66
2022-11-10T05:07:02.065Z,3.51
2022-11-10T05:08:33.397Z,3.57
2022-11-10T05:10:05.159Z,3.33
2022-11-10T05:11:36.669Z,3.13
2022-11-10T05:13:08.059Z,3.30
2022-11-10T05:14:39.411Z,2.78
2022-11-10T05:16:10.740Z,3.25
2022-11-10T05:17:42.087Z,3.15
2022-11-10T05:19:13.446Z,3.01
2022-11-10T05:20:44.699Z,3.67
2022-11-10T05:22:15.945Z,3.36
2022-11-10T05:23:47.364Z,3.54
2022-11-10T05:25:18.698Z,3.73
2022-11-10T05:26:50.022Z,4.07
2022-11-10T05:28:21.338Z,3.16
2022-11-10T05:30:41.108Z,3.37
2022-11-10T05:32:38.217Z,3.28
2022-11-10T05:34:09.432Z,3.61
2022-11-10T05:35:40.703Z,4.00
2022-11-10T05:37:12.410Z,3.62
2022-11-10T05:38:43.959Z,3.28
2022-11-10T05:40:15.360Z,3.89
2022-11-10T05:41:46.695Z,3.79
2022-11-10T05:43:18.214Z,3.53
2022-11-10T05:44:49.618Z,3.81
2022-11-10T05:46:20.959Z,3.89
2022-11-10T05:47:52.281Z,3.75
2022-11-10T05:49:23.584Z,3.83
2022-11-10T05:50:54.821Z,3.87
2022-11-10T05:52:26.269Z,3.47
2022-11-10T05:53:57.606Z,3.70
2022-11-10T05:55:28.878Z,4.09
2022-11-10T05:57:00.410Z,3.72
2022-11-10T05:58:31.845Z,3.58
2022-11-10T06:00:03.214Z,3.68
2022-11-10T06:01:34.836Z,3.48
2022-11-10T06:03:06.302Z,3.59
2022-11-10T06:04:37.566Z,3.47
2022-11-10T06:06:08.976Z,3.79
2022-11-10T06:07:53.634Z,3.94
2022-11-10T06:09:30.068Z,4.29
2022-11-10T06:11:43.300Z,3.95
2022-11-10T06:13:15.225Z,4.15
2022-11-10T06:14:46.836Z,4.08
2022-11-10T06:16:18.325Z,3.82
2022-11-10T06:17:49.714Z,3.79
2022-11-10T06:19:21.231Z,3.31
2022-11-10T06:20:57.914Z,3.59
2022-11-10T06:22:29.150Z,3.79
2022-11-10T06:24:00.692Z,3.78
2022-11-10T06:25:32.121Z,3.73
2022-11-10T06:27:15.151Z,3.64
2022-11-10T06:28:46.651Z,4.24
2022-11-10T06:30:23.012Z,3.72
2022-11-10T06:31:54.439Z,3.72
2022-11-10T06:33:25.831Z,4.60
2022-11-10T06:35:00.493Z,3.93
2022-11-10T06:36:32.161Z,3.97
2022-11-10T06:38:03.383Z,3.88
2022-11-10T06:39:34.712Z,4.01
2022-11-10T06:41:10.918Z,4.12
2022-11-10T06:42:42.305Z,3.82
2022-11-10T06:44:13.548Z,3.94
2022-11-10T06:45:44.835Z,4.02
2022-11-10T06:47:17.028Z,4.34
2022-11-10T06:48:48.636Z,3.84
2022-11-10T06:50:19.950Z,3.92
2022-11-10T06:51:51.364Z,3.80
2022-11-10T06:53:26.853Z,3.72
2022-11-10T06:54:58.501Z,4.26
2022-11-10T06:56:29.830Z,3.94
2022-11-10T06:58:01.245Z,3.75
2022-11-10T06:59:32.579Z,3.26
2022-11-10T07:01:03.919Z,3.55
2022-11-10T07:02:35.308Z,3.93
2022-11-10T07:04:19.383Z,3.84
2022-11-10T07:05:51.559Z,3.77
2022-11-10T07:07:24.070Z,3.82
2022-11-10T07:08:55.377Z,4.20
2022-11-10T07:10:26.685Z,4.00
2022-11-10T07:11:57.998Z,4.00
2022-11-10T07:13:29.289Z,3.97
2022-11-10T07:15:00.672Z,3.98
2022-11-10T07:16:32.191Z,3.69
2022-11-10T07:18:03.462Z,3.70
2022-11-10T07:19:39.871Z,3.48
2022-11-10T07:21:30.450Z,3.42
2022-11-10T07:23:01.807Z,3.70
2022-11-10T07:24:33.074Z,3.79
2022-11-10T07:26:04.324Z,3.67
2022-11-10T07:27:35.687Z,3.86
2022-11-10T07:29:07.382Z,3.55
2022-11-10T07:30:38.814Z,3.69
2022-11-10T07:32:10.286Z,3.84
2022-11-10T07:33:42.123Z,3.70
2022-11-10T07:35:13.406Z,3.67
2022-11-10T07:36:44.685Z,3.63
2022-11-10T07:38:16.166Z,4.14
2022-11-10T07:39:47.477Z,3.40
2022-11-10T07:41:18.800Z,3.70
2022-11-10T07:42:50.207Z,3.91
2022-11-10T07:44:21.609Z,4.07
2022-11-10T07:45:52.941Z,3.83
2022-11-10T07:47:39.521Z,3.61
2022-11-10T07:49:27.718Z,3.74
2022-11-10T07:50:59.000Z,3.93
2022-11-10T07:52:30.487Z,3.42
2022-11-10T07:54:02.039Z,3.75
2022-11-10T07:55:33.385Z,3.35
2022-11-10T07:57:04.791Z,3.41
2022-11-10T07:58:36.063Z,3.62
2022-11-10T08:00:07.455Z,3.04
2022-11-10T08:01:38.859Z,3.42
2022-11-10T08:03:10.195Z,3.61
2022-11-10T08:04:42.056Z,3.42
2022-11-10T08:06:13.313Z,3.57
2022-11-10T08:07:44.678Z,3.52
2022-11-10T08:09:16.272Z,3.54
2022-11-10T08:10:47.723Z,3.50
2022-11-10T08:12:18.985Z,3.37
2022-11-10T08:13:50.346Z,2.83
2022-11-10T08:15:21.773Z,3.29
2022-11-10T08:16:53.195Z,3.86
2022-11-10T08:18:24.534Z,3.43
2022-11-10T08:19:55.870Z,3.79
2022-11-10T08:21:27.361Z,3.13
2022-11-10T08:22:58.679Z,3.57
2022-11-10T08:24:30.066Z,4.09
2022-11-10T08:26:01.591Z,3.49
2022-11-10T08:27:38.042Z,3.30
2022-11-10T08:29:09.559Z,3.48
2022-11-10T08:30:40.798Z,3.35
2022-11-10T08:32:13.138Z,3.04
2022-11-10T08:33:44.471Z,3.17
2022-11-10T08:35:15.785Z,3.35
2022-11-10T08:37:02.248Z,3.40
2022-11-10T08:38:33.546Z,3.39
2022-11-10T08:40:05.000Z,2.69
2022-11-10T08:41:36.371Z,3.51
2022-11-10T08:43:07.773Z,3.35
2022-11-10T08:44:39.072Z,3.08
2022-11-10T08:46:10.424Z,3.26
2022-11-10T08:47:46.985Z,3.57
2022-11-10T08:49:18.515Z,3.44
2022-11-10T08:50:50.043Z,3.38
2022-11-10T08:52:31.379Z,3.41
2022-11-10T08:54:02.761Z,3.09
2022-11-10T08:55:34.358Z,3.62
2022-11-10T08:57:05.846Z,4.04
2022-11-10T08:58:47.313Z,3.78
2022-11-10T09:00:36.143Z,3.09
2022-11-10T09:02:07.664Z,2.80
2022-11-10T09:03:39.137Z,3.06
2022-11-10T09:05:10.524Z,3.22
2022-11-10T09:06:41.897Z,3.75
2022-11-10T09:08:33.952Z,3.64
2022-11-10T09:10:07.604Z,3.48
2022-11-10T09:11:39.583Z,3.26
2022-11-10T09:13:15.868Z,3.66
2022-11-10T09:14:47.197Z,3.89
2022-11-10T09:16:18.546Z,3.84
2022-11-10T09:17:49.985Z,3.54
2022-11-10T09:19:21.319Z,3.49
2022-11-10T09:20:52.668Z,3.25
2022-11-10T09:22:41.278Z,3.52
2022-11-10T09:24:13.863Z,3.59
2022-11-10T09:25:50.169Z,3.87
2022-11-10T09:27:21.582Z,3.25
2022-11-10T09:28:53.023Z,3.51
2022-11-10T09:30:29.477Z,3.89
2022-11-10T09:32:00.827Z,3.93
2022-11-10T09:33:32.437Z,3.25
2022-11-10T09:35:03.883Z,3.44
2022-11-10T09:36:35.198Z,3.61
2022-11-10T09:38:07.807Z,3.06
2022-11-10T09:39:39.111Z,3.59
2022-11-10T09:41:10.430Z,3.51
2022-11-10T09:42:42.133Z,3.58
2022-11-10T09:44:13.447Z,3.36
2022-11-10T09:45:44.736Z,3.31
2022-11-10T09:47:19.054Z,3.20
2022-11-10T09:49:05.851Z,3.18
2022-11-10T09:50:37.313Z,2.92
2022-11-10T09:52:08.641Z,2.89
2022-11-10T09:53:40.156Z,3.50
2022-11-10T09:55:11.630Z,3.17
2022-11-10T09:56:43.080Z,3.22
2022-11-10T09:58:14.429Z,3.30
2022-11-10T09:59:45.827Z,3.37
2022-11-10T10:01:17.216Z,2.88
2022-11-10T10:02:48.612Z,3.51
2022-11-10T10:04:19.973Z,3.21
2022-11-10T10:05:52.142Z,3.19
2022-11-10T10:07:23.765Z,3.44
2022-11-10T10:08:55.152Z,3.15
2022-11-10T10:10:26.618Z,3.67
2022-11-10T10:11:57.953Z,3.67
2022-11-10T10:13:29.435Z,3.05
2022-11-10T10:15:00.800Z,3.01
2022-11-10T10:16:32.356Z,3.24
2022-11-10T10:18:03.664Z,2.97
2022-11-10T10:19:34.987Z,2.57
2022-11-10T10:21:06.432Z,3.14
2022-11-10T10:22:37.807Z,3.22
2022-11-10T10:24:13.971Z,3.27
2022-11-10T10:25:54.818Z,2.93
2022-11-10T10:27:26.235Z,2.74
2022-11-10T10:28:57.546Z,3.26
2022-11-10T10:30:29.117Z,3.16
2022-11-10T10:32:00.781Z,2.72
2022-11-10T10:33:32.161Z,3.17
2022-11-10T10:35:03.529Z,3.50
2022-11-10T10:36:34.976Z,2.75
2022-11-10T10:38:06.512Z,2.85
2022-11-10T10:39:37.907Z,3.23
2022-11-10T10:41:09.791Z,3.38
2022-11-10T10:42:41.193Z,2.92
2022-11-10T10:44:12.642Z,3.33
2022-11-10T10:45:44.015Z,2.76
2022-11-10T10:47:15.513Z,2.84
2022-11-10T10:48:50.497Z,3.13
2022-11-10T10:50:25.140Z,3.24
2022-11-10T10:51:56.736Z,3.30
2022-11-10T10:53:28.144Z,2.96
2022-11-10T10:54:59.674Z,2.98
2022-11-10T10:56:31.187Z,2.56
2022-11-10T10:58:02.688Z,2.39
2022-11-10T10:59:34.043Z,2.85
2022-11-10T11:01:05.688Z,2.47
2022-11-10T11:02:37.087Z,2.79
2022-11-10T11:04:08.841Z,2.65
2022-11-10T11:05:40.347Z,2.97
2022-11-10T11:07:11.854Z,3.26
2022-11-10T11:08:43.511Z,3.28
2022-11-10T11:10:14.942Z,3.11
2022-11-10T11:11:46.568Z,3.16
2022-11-10T11:13:18.095Z,2.97
2022-11-10T11:14:49.631Z,3.17
2022-11-10T11:16:21.075Z,2.63
2022-11-10T11:18:02.672Z,2.86
2022-11-10T11:19:34.200Z,2.74
2022-11-10T11:21:05.600Z,2.71
2022-11-10T11:22:37.142Z,2.72
2022-11-10T11:24:09.871Z,2.70
2022-11-10T11:25:41.469Z,2.82
2022-11-10T11:27:12.857Z,2.75
2022-11-10T11:28:44.308Z,3.00
2022-11-10T11:30:15.823Z,3.21
2022-11-10T11:31:47.351Z,3.02
2022-11-10T11:33:23.992Z,2.44
2022-11-10T11:34:55.458Z,2.92
2022-11-10T11:36:26.887Z,2.94
2022-11-10T11:37:58.632Z,2.82
2022-11-10T11:39:29.987Z,2.92
2022-11-10T11:41:01.636Z,2.86
2022-11-10T11:42:33.135Z,3.01
2022-11-10T11:44:04.693Z,2.65
2022-11-10T11:45:36.173Z,3.28
2022-11-10T11:47:07.715Z,2.82
2022-11-10T11:48:39.055Z,3.03
2022-11-10T11:50:10.526Z,2.72
2022-11-10T11:51:41.949Z,2.67
2022-11-10T11:53:13.286Z,2.95
2022-11-10T11:54:44.685Z,2.70
2022-11-10T11:56:16.111Z,2.68
2022-11-10T11:57:47.753Z,2.40
2022-11-10T11:59:19.299Z,2.76
2022-11-10T12:00:50.725Z,2.36
2022-11-10T12:02:22.216Z,2.68
2022-11-10T12:03:54.151Z,2.29
2022-11-10T12:05:25.666Z,1.81
2022-11-10T12:06:57.707Z,2.57
2022-11-10T12:08:29.150Z,2.43
2022-11-10T12:10:00.870Z,2.48
2022-11-10T12:11:32.389Z,2.32
2022-11-10T12:13:03.685Z,2.26
2022-11-10T12:14:35.278Z,2.03
2022-11-10T12:16:06.873Z,2.64
2022-11-10T12:17:38.312Z,2.50
2022-11-10T12:19:09.706Z,1.98
2022-11-10T12:20:41.126Z,2.34
2022-11-10T12:22:12.472Z,2.31
2022-11-10T12:23:43.830Z,2.54
2022-11-10T12:25:15.248Z,2.38
2022-11-10T12:26:46.684Z,2.27
2022-11-10T12:28:18.334Z,2.62
2022-11-10T12:29:49.682Z,2.93
2022-11-10T12:31:21.186Z,2.69
2022-11-10T12:32:52.604Z,2.17
2022-11-10T12:34:23.935Z,2.58
2022-11-10T12:35:55.278Z,2.53
2022-11-10T12:37:28.017Z,2.12
2022-11-10T12:39:00.348Z,2.21
2022-11-10T12:40:31.874Z,2.46
2022-11-10T12:42:04.437Z,2.46
2022-11-10T12:43:35.856Z,2.39
2022-11-10T12:45:07.239Z,2.17
2022-11-10T12:46:38.776Z,2.59
2022-11-10T12:48:10.284Z,1.85
2022-11-10T12:49:41.632Z,2.63
2022-11-10T12:51:13.037Z,2.63
2022-11-10T12:52:44.416Z,2.26
2022-11-10T12:54:17.042Z,2.31
2022-11-10T12:55:48.765Z,2.23
2022-11-10T12:57:20.220Z,2.17
2022-11-10T12:58:51.715Z,1.85
2022-11-10T13:00:27.698Z,2.11
2022-11-10T13:01:59.715Z,2.19
2022-11-10T13:03:31.140Z,2.07
2022-11-10T13:05:02.668Z,2.13
2022-11-10T13:06:34.060Z,2.39
2022-11-10T13:08:05.403Z,1.71
2022-11-10T13:09:37.389Z,2.05
2022-11-10T13:11:08.827Z,1.83
2022-11-10T13:12:40.271Z,1.87
2022-11-10T13:14:11.643Z,2.13
2022-11-10T13:15:43.017Z,2.23
2022-11-10T13:17:14.441Z,2.24
2022-11-10T13:18:46.058Z,2.34
2022-11-10T13:20:30.898Z,1.75
2022-11-10T13:22:03.040Z,1.70
2022-11-10T13:23:34.469Z,1.90
2022-11-10T13:25:05.992Z,1.72
2022-11-10T13:26:37.526Z,1.65
2022-11-10T13:28:08.919Z,1.54
2022-11-10T13:29:40.467Z,1.66
2022-11-10T13:31:11.850Z,1.85
2022-11-10T13:32:43.200Z,1.79
2022-11-10T13:34:14.582Z,1.79
2022-11-10T13:35:47.378Z,1.90
2022-11-10T13:37:20.532Z,1.56
2022-11-10T13:38:51.858Z,1.66
2022-11-10T13:40:23.270Z,1.72
2022-11-10T13:41:54.689Z,1.92
2022-11-10T13:43:26.113Z,1.49
2022-11-10T13:44:57.512Z,1.11
2022-11-10T13:46:29.041Z,1.50
2022-11-10T13:48:00.543Z,1.58
2022-11-10T13:49:31.928Z,1.66
2022-11-10T13:51:03.313Z,1.61
2022-11-10T13:52:34.772Z,1.69
2022-11-10T13:54:06.223Z,1.62
2022-11-10T13:55:37.644Z,1.59
2022-11-10T13:57:09.141Z,1.81
2022-11-10T13:58:40.594Z,1.73
2022-11-10T14:00:12.382Z,1.73
2022-11-10T14:01:43.772Z,1.65
2022-11-10T14:03:15.137Z,1.90
2022-11-10T14:04:46.660Z,1.61
2022-11-10T14:06:17.999Z,1.85
2022-11-10T14:07:49.323Z,1.51
2022-11-10T14:09:20.824Z,1.61
2022-11-10T14:10:52.192Z,1.54
2022-11-10T14:12:23.697Z,1.53
2022-11-10T14:13:55.059Z,1.48
2022-11-10T14:15:26.384Z,1.62
2022-11-10T14:16:57.860Z,1.66
2022-11-10T14:18:29.406Z,1.72
2022-11-10T14:20:00.959Z,1.57
2022-11-10T14:21:32.257Z,1.88
2022-11-10T14:23:03.550Z,1.65
2022-11-10T14:24:34.873Z,1.66
2022-11-10T14:26:06.322Z,1.85
2022-11-10T14:27:37.909Z,1.81
2022-11-10T14:29:09.413Z,1.57
2022-11-10T14:30:40.832Z,1.57
2022-11-10T14:32:12.276Z,1.63
2022-11-10T14:33:43.610Z,1.77
2022-11-10T14:35:15.093Z,2.01
2022-11-10T14:36:52.001Z,1.75
2022-11-10T14:38:24.162Z,1.67
2022-11-10T14:39:56.250Z,1.82
2022-11-10T14:41:28.730Z,1.94
2022-11-10T14:43:00.280Z,1.85
2022-11-10T14:44:31.674Z,1.66
2022-11-10T14:46:03.251Z,1.67
2022-11-10T14:47:34.635Z,1.78
2022-11-10T14:49:05.990Z,1.56
2022-11-10T14:50:37.548Z,1.66
2022-11-10T14:52:09.920Z,1.60
2022-11-10T14:53:41.245Z,1.62
2022-11-10T14:55:12.669Z,1.62
2022-11-10T14:56:44.210Z,1.86
2022-11-10T14:58:15.601Z,1.63
2022-11-10T14:59:46.926Z,1.60
2022-11-10T15:01:18.355Z,1.70
2022-11-10T15:02:49.800Z,1.95
2022-11-10T15:04:21.215Z,2.00
2022-11-10T15:05:52.675Z,1.89
2022-11-10T15:07:24.103Z,1.82
2022-11-10T15:08:57.594Z,1.95
2022-11-10T15:10:29.395Z,2.03
2022-11-10T15:12:00.803Z,1.68
2022-11-10T15:13:32.186Z,1.50
2022-11-10T15:15:03.641Z,1.63
2022-11-10T15:16:34.949Z,2.10
2022-11-10T15:18:06.552Z,1.83
2022-11-10T15:19:37.861Z,1.75
2022-11-10T15:21:09.727Z,1.85
2022-11-10T15:22:41.493Z,1.83
2022-11-10T15:24:12.918Z,1.74
2022-11-10T15:25:46.953Z,1.80
2022-11-10T15:27:20.661Z,2.12
2022-11-10T15:28:52.152Z,2.00
2022-11-10T15:30:23.566Z,1.94
2022-11-10T15:31:55.037Z,1.87
2022-11-10T15:33:26.470Z,2.09
2022-11-10T15:34:58.064Z,1.85
2022-11-10T15:36:29.724Z,2.10
2022-11-10T15:38:01.363Z,2.11
2022-11-10T15:39:32.796Z,2.15
2022-11-10T15:41:04.251Z,2.33
2022-11-10T15:42:35.586Z,2.39
2022-11-10T15:44:06.873Z,2.00
2022-11-10T15:45:38.357Z,2.06
2022-11-10T15:47:09.830Z,2.13
2022-11-10T15:48:41.208Z,2.59
2022-11-10T15:50:12.551Z,2.21
2022-11-10T15:51:44.122Z,2.54
2022-11-10T15:53:15.429Z,2.37
2022-11-10T15:54:46.903Z,2.16
2022-11-10T15:56:23.215Z,1.93
2022-11-10T15:57:54.616Z,1.82
2022-11-10T15:59:26.486Z,1.83
2022-11-10T16:00:57.895Z,1.96
2022-11-10T16:02:29.382Z,2.08
2022-11-10T16:04:00.824Z,1.96
2022-11-10T16:05:32.220Z,1.94
2022-11-10T16:07:03.849Z,1.77
2022-11-10T16:08:35.504Z,2.26
2022-11-10T16:10:06.875Z,2.06
2022-11-10T16:11:38.140Z,2.20
2022-11-10T16:13:09.434Z,2.20
2022-11-10T16:14:40.965Z,1.77
2022-11-10T16:16:12.310Z,2.24
2022-11-10T16:17:43.628Z,2.50
2022-11-10T16:19:15.091Z,1.85
2022-11-10T16:20:46.673Z,2.27
2022-11-10T16:22:18.034Z,1.99
2022-11-10T16:23:49.338Z,2.39
2022-11-10T16:25:25.134Z,2.22
2022-11-10T16:26:59.182Z,2.15
2022-11-10T16:28:30.544Z,1.87
2022-11-10T16:30:02.033Z,1.69
2022-11-10T16:31:33.631Z,1.56
2022-11-10T16:33:05.068Z,1.71
2022-11-10T16:34:36.469Z,2.29
2022-11-10T16:36:07.719Z,1.62
2022-11-10T16:37:59.542Z,1.68
2022-11-10T16:39:31.857Z,2.00
2022-11-10T16:41:03.286Z,1.92
2022-11-10T16:42:54.649Z,1.96
2022-11-10T16:44:46.232Z,1.99
2022-11-10T16:46:17.570Z,1.96
2022-11-10T16:47:48.880Z,2.11
2022-11-10T16:49:20.529Z,1.67
2022-11-10T16:50:51.914Z,1.97
2022-11-10T16:52:23.268Z,2.01
2022-11-10T16:53:54.644Z,2.00
2022-11-10T16:55:26.109Z,2.00
2022-11-10T16:56:57.633Z,2.00
2022-11-10T16:58:28.960Z,1.94
2022-11-10T17:00:00.449Z,2.65
2022-11-10T17:01:32.114Z,2.11
2022-11-10T17:03:03.596Z,2.19
2022-11-10T17:04:34.885Z,1.98
2022-11-10T17:06:06.136Z,2.37
2022-11-10T17:07:37.441Z,2.32
2022-11-10T17:09:09.317Z,2.25
2022-11-10T17:10:40.695Z,2.22
2022-11-10T17:12:12.190Z,2.17
2022-11-10T17:13:43.508Z,2.35
2022-11-10T17:15:14.886Z,2.41
2022-11-10T17:16:46.253Z,2.29
2022-11-10T17:18:17.979Z,2.54
2022-11-10T17:19:49.251Z,2.22
2022-11-10T17:21:20.512Z,2.49
2022-11-10T17:22:51.851Z,2.56
2022-11-10T17:24:23.496Z,2.34
2022-11-10T17:25:54.843Z,2.55
2022-11-10T17:27:26.433Z,2.70
2022-11-10T17:28:57.877Z,2.79
2022-11-10T17:30:29.321Z,2.94
2022-11-10T17:32:00.696Z,2.44
2022-11-10T17:33:32.261Z,2.57
2022-11-10T17:35:03.727Z,2.54
2022-11-10T17:36:35.191Z,2.91
2022-11-10T17:38:06.643Z,2.99
2022-11-10T17:39:37.994Z,2.85
2022-11-10T17:41:09.432Z,2.26
2022-11-10T17:42:40.827Z,2.64
2022-11-10T17:44:24.394Z,2.48
2022-11-10T17:45:55.823Z,2.52
2022-11-10T17:47:27.104Z,2.48
2022-11-10T17:49:02.755Z,2.71
2022-11-10T17:50:34.513Z,2.78
2022-11-10T17:52:05.727Z,2.13
2022-11-10T17:53:37.410Z,2.42
2022-11-10T17:55:08.691Z,2.56
2022-11-10T17:56:40.067Z,2.49
2022-11-10T17:58:12.535Z,2.48
2022-11-10T17:59:43.933Z,2.27
2022-11-10T18:01:15.336Z,2.39
2022-11-10T18:02:51.191Z,2.48
2022-11-10T18:04:26.237Z,2.53
2022-11-10T18:05:57.599Z,2.41
2022-11-10T18:07:28.908Z,2.37
2022-11-10T18:09:00.377Z,2.49
2022-11-10T18:10:31.800Z,2.38
2022-11-10T18:12:03.466Z,2.53
2022-11-10T18:13:34.769Z,2.76
2022-11-10T18:15:06.195Z,2.66
2022-11-10T18:16:40.310Z,2.52
2022-11-10T18:18:11.511Z,2.49
2022-11-10T18:19:42.787Z,2.51
2022-11-10T18:21:14.110Z,2.58
2022-11-10T18:22:45.465Z,2.43
2022-11-10T18:24:16.904Z,2.56
2022-11-10T18:25:48.251Z,2.61
2022-11-10T18:27:19.590Z,2.58
2022-11-10T18:28:55.950Z,2.51
2022-11-10T18:30:32.270Z,2.50
2022-11-10T18:32:06.560Z,2.80
2022-11-10T18:33:37.926Z,3.14
2022-11-10T18:35:09.344Z,2.86
2022-11-10T18:36:40.789Z,2.93
2022-11-10T18:38:12.122Z,2.63
2022-11-10T18:39:43.383Z,2.87
2022-11-10T18:41:30.265Z,2.97
2022-11-10T18:43:06.143Z,2.44
2022-11-10T18:44:39.255Z,2.60
2022-11-10T18:46:10.670Z,3.10
2022-11-10T18:47:42.048Z,3.04
2022-11-10T18:49:13.351Z,2.71
2022-11-10T18:50:44.724Z,2.82
2022-11-10T18:52:16.249Z,2.62
2022-11-10T18:53:47.779Z,3.19
2022-11-10T18:55:19.223Z,3.02
2022-11-10T18:56:50.661Z,2.87
2022-11-10T18:58:22.128Z,2.94
2022-11-10T18:59:53.565Z,2.82
2022-11-10T19:01:25.095Z,2.77
2022-11-10T19:02:56.451Z,2.88
2022-11-10T19:04:27.791Z,3.25
2022-11-10T19:05:59.346Z,2.85
2022-11-10T19:07:30.754Z,3.05
2022-11-10T19:09:12.687Z,3.27
2022-11-10T19:10:44.171Z,2.80
2022-11-10T19:12:15.454Z,3.05
2022-11-10T19:13:46.728Z,3.19
2022-11-10T19:15:18.039Z,2.92
2022-11-10T19:16:49.361Z,2.84
2022-11-10T19:18:20.797Z,3.01
2022-11-10T19:19:56.371Z,3.06
2022-11-10T19:21:29.367Z,3.02
2022-11-10T19:23:00.630Z,3.19
2022-11-10T19:24:42.442Z,2.95
2022-11-10T19:26:25.636Z,3.32
2022-11-10T19:27:57.092Z,3.18
2022-11-10T19:29:29.011Z,3.35
2022-11-10T19:31:00.427Z,3.11
2022-11-10T19:32:33.430Z,3.11
2022-11-10T19:34:04.759Z,2.99
2022-11-10T19:35:36.095Z,2.88
2022-11-10T19:37:07.407Z,2.71
2022-11-10T19:38:38.755Z,3.31
2022-11-10T19:40:10.159Z,3.01
2022-11-10T19:41:41.481Z,3.09
2022-11-10T19:43:12.781Z,2.75
2022-11-10T19:44:44.165Z,2.97
2022-11-10T19:46:15.573Z,3.28
2022-11-10T19:47:46.958Z,3.01
2022-11-10T19:49:18.638Z,2.85
2022-11-10T19:50:50.106Z,2.85
2022-11-10T19:52:21.407Z,2.92
2022-11-10T19:53:52.752Z,3.30
2022-11-10T19:55:49.119Z,3.14
2022-11-10T19:57:20.653Z,2.85
2022-11-10T19:58:52.157Z,2.77
2022-11-10T20:00:23.581Z,2.83
2022-11-10T20:01:55.139Z,2.71
2022-11-10T20:03:26.514Z,2.74
2022-11-10T20:04:58.028Z,2.75
2022-11-10T20:06:29.689Z,2.83
2022-11-10T20:08:01.014Z,2.96
2022-11-10T20:09:32.489Z,2.77
2022-11-10T20:11:04.102Z,2.44
2022-11-10T20:12:35.451Z,2.87
2022-11-10T20:14:07.072Z,3.00
2022-11-10T20:15:38.404Z,2.84
2022-11-10T20:17:09.914Z,2.86
2022-11-10T20:18:41.157Z,2.81
2022-11-10T20:20:12.470Z,2.92
2022-11-10T20:21:43.997Z,2.74
2022-11-10T20:23:15.442Z,2.67
2022-11-10T20:24:50.928Z,2.70
2022-11-10T20:26:22.611Z,2.76
2022-11-10T20:27:54.126Z,2.92